createdAt,value
2023-03-13T00:02:14.002Z,96226.09
2023-03-13T00:04:42.361Z,96237.66
2023-03-13T00:07:10.463Z,96230.47
2023-03-13T00:09:38.231Z,96227.25
2023-03-13T00:12:06.985Z,96231.59
2023-03-13T00:14:34.795Z,96231.34
2023-03-13T00:17:03.069Z,96236.88
2023-03-13T00:19:32.605Z,96238.97
2023-03-13T00:22:00.757Z,96230.91
2023-03-13T00:24:28.502Z,96229.66
2023-03-13T00:26:56.723Z,96213.63
2023-03-13T00:29:24.434Z,96206.53
2023-03-13T00:31:52.218Z,96204.44
2023-03-13T00:34:20.269Z,96203.03
2023-03-13T00:36:49.437Z,96204.00
2023-03-13T00:39:17.196Z,96203.94
2023-03-13T00:41:45.702Z,96199.88
2023-03-13T00:44:13.518Z,96199.25
2023-03-13T00:46:41.544Z,96192.09
2023-03-13T00:49:09.668Z,96213.63
2023-03-13T00:51:37.447Z,96192.47
2023-03-13T00:54:06.806Z,96204.59
2023-03-13T00:56:34.977Z,96204.81
2023-03-13T00:59:03.120Z,96208.59
2023-03-13T01:01:33.189Z,96208.59
2023-03-13T01:04:02.740Z,96205.47
2023-03-13T01:06:32.278Z,96208.34
2023-03-13T01:09:00.949Z,96195.88
2023-03-13T01:11:32.679Z,96199.13
2023-03-13T01:14:02.450Z,96195.06
2023-03-13T01:16:32.185Z,96186.03
2023-03-13T01:19:02.584Z,96184.34
2023-03-13T01:21:30.888Z,96180.78
2023-03-13T01:23:58.984Z,96186.84
2023-03-13T01:26:28.621Z,96174.00
2023-03-13T01:28:57.955Z,96178.22
2023-03-13T01:31:27.820Z,96169.66
2023-03-13T01:33:58.354Z,96176.13
2023-03-13T01:36:27.349Z,96167.28
2023-03-13T01:38:56.883Z,96170.31
2023-03-13T01:41:25.265Z,96165.47
2023-03-13T01:43:53.316Z,96164.63
2023-03-13T01:46:25.241Z,96167.78
2023-03-13T01:48:57.637Z,96153.44
2023-03-13T01:51:28.717Z,96145.00
2023-03-13T01:54:02.523Z,96145.09
2023-03-13T01:56:37.508Z,96154.72
2023-03-13T01:59:07.672Z,96138.31
2023-03-13T02:01:37.368Z,96127.00
2023-03-13T02:04:07.247Z,96137.75
2023-03-13T02:06:40.340Z,96133.00
2023-03-13T02:09:11.927Z,96125.25
2023-03-13T02:11:48.859Z,96132.38
2023-03-13T02:14:20.292Z,96128.47
2023-03-13T02:16:52.067Z,96132.19
2023-03-13T02:19:26.076Z,96132.44
2023-03-13T02:22:04.144Z,96130.38
2023-03-13T02:24:39.034Z,96126.22
2023-03-13T02:27:08.849Z,96128.56
2023-03-13T02:29:36.645Z,96132.81
2023-03-13T02:32:04.788Z,96123.06
2023-03-13T02:34:36.718Z,96119.28
2023-03-13T02:37:07.702Z,96115.16
2023-03-13T02:39:36.462Z,96105.97
2023-03-13T02:42:04.937Z,96102.03
2023-03-13T02:44:39.329Z,96098.59
2023-03-13T02:47:07.857Z,96090.19
2023-03-13T02:49:35.989Z,96081.75
2023-03-13T02:52:11.832Z,96080.50
2023-03-13T02:54:41.272Z,96067.84
2023-03-13T02:57:09.103Z,96069.78
2023-03-13T02:59:38.663Z,96058.84
2023-03-13T03:02:06.446Z,96065.16
2023-03-13T03:04:34.502Z,96056.69
2023-03-13T03:07:02.270Z,96054.53
2023-03-13T03:09:30.048Z,96059.31
2023-03-13T03:11:57.830Z,96064.00
2023-03-13T03:14:25.714Z,96065.22
2023-03-13T03:16:54.804Z,96050.44
2023-03-13T03:19:22.608Z,96045.19
2023-03-13T03:21:50.678Z,96048.34
2023-03-13T03:24:18.531Z,96057.31
2023-03-13T03:26:47.094Z,96030.97
2023-03-13T03:29:14.975Z,96049.97
2023-03-13T03:31:42.737Z,96051.13
2023-03-13T03:34:11.842Z,96045.16
2023-03-13T03:36:39.657Z,96048.88
2023-03-13T03:39:07.435Z,96048.09
2023-03-13T03:41:35.732Z,96051.25
2023-03-13T03:44:03.652Z,96047.66
2023-03-13T03:46:31.793Z,96048.56
2023-03-13T03:48:59.571Z,96058.66
2023-03-13T03:51:28.815Z,96058.31
2023-03-13T03:53:56.679Z,96048.56
2023-03-13T03:56:24.599Z,96058.81
2023-03-13T03:58:52.455Z,96057.13
2023-03-13T04:01:20.230Z,96049.44
2023-03-13T04:03:48.434Z,96055.22
2023-03-13T04:06:16.394Z,96050.31
2023-03-13T04:08:45.570Z,96052.00
2023-03-13T04:11:13.399Z,96053.22
2023-03-13T04:13:41.156Z,96058.66
2023-03-13T04:16:09.944Z,96047.19
2023-03-13T04:18:37.825Z,96043.47
2023-03-13T04:21:07.252Z,96054.03
2023-03-13T04:23:34.946Z,96048.78
2023-03-13T04:26:04.145Z,96034.16
2023-03-13T04:28:32.048Z,96035.31
2023-03-13T04:31:01.332Z,96028.06
2023-03-13T04:33:29.239Z,96017.66
2023-03-13T04:35:57.089Z,96028.53
2023-03-13T04:38:25.169Z,96022.22
2023-03-13T04:40:52.968Z,96022.78
2023-03-13T04:43:22.207Z,96031.41
2023-03-13T04:45:50.190Z,96022.22
2023-03-13T04:48:18.132Z,96041.09
2023-03-13T04:50:45.969Z,96025.53
2023-03-13T04:53:13.809Z,96029.03
2023-03-13T04:55:42.198Z,96027.38
2023-03-13T04:58:10.334Z,96020.09
2023-03-13T05:00:41.459Z,96021.84
2023-03-13T05:03:09.345Z,96023.28
2023-03-13T05:05:37.175Z,96032.94
2023-03-13T05:08:06.017Z,96025.09
2023-03-13T05:10:34.939Z,96022.00
2023-03-13T05:13:02.988Z,96025.50
2023-03-13T05:15:30.791Z,96021.84
2023-03-13T05:18:00.055Z,96019.19
2023-03-13T05:20:27.881Z,96004.13
2023-03-13T05:22:56.033Z,96024.63
2023-03-13T05:25:23.740Z,96018.38
2023-03-13T05:27:51.545Z,96008.00
2023-03-13T05:30:19.806Z,96012.38
2023-03-13T05:32:47.728Z,96016.03
2023-03-13T05:35:17.078Z,96009.22
2023-03-13T05:37:45.665Z,96001.91
2023-03-13T05:40:14.248Z,96004.13
2023-03-13T05:42:42.074Z,95993.66
2023-03-13T05:45:11.276Z,96003.63
2023-03-13T05:47:39.655Z,95972.94
2023-03-13T05:50:08.980Z,96003.88
2023-03-13T05:52:38.258Z,95991.25
2023-03-13T05:55:06.868Z,96000.16
2023-03-13T05:57:34.654Z,96004.53
2023-03-13T06:00:02.678Z,95999.16
2023-03-13T06:02:30.414Z,95986.84
2023-03-13T06:04:58.506Z,95988.66
2023-03-13T06:07:26.416Z,95980.41
2023-03-13T06:09:55.549Z,95982.63
2023-03-13T06:12:23.353Z,95984.13
2023-03-13T06:14:51.161Z,95979.88
2023-03-13T06:17:18.884Z,95985.84
2023-03-13T06:19:47.471Z,95978.44
2023-03-13T06:22:17.091Z,95983.94
2023-03-13T06:24:46.840Z,95988.34
2023-03-13T06:27:16.351Z,95983.56
2023-03-13T06:29:44.296Z,95975.44
2023-03-13T06:32:12.186Z,95983.00
2023-03-13T06:34:39.945Z,95987.66
2023-03-13T06:37:08.068Z,95991.06
2023-03-13T06:39:36.164Z,95990.72
2023-03-13T06:42:03.920Z,96004.25
2023-03-13T06:44:33.146Z,95997.81
2023-03-13T06:47:01.007Z,95990.66
2023-03-13T06:49:28.813Z,95997.91
2023-03-13T06:51:58.628Z,95989.66
2023-03-13T06:54:26.541Z,95988.19
2023-03-13T06:56:54.826Z,95980.72
2023-03-13T06:59:22.780Z,95981.28
2023-03-13T07:01:52.200Z,95955.31
2023-03-13T07:04:20.185Z,95959.28
2023-03-13T07:06:48.317Z,95946.66
2023-03-13T07:09:16.170Z,95965.50
2023-03-13T07:11:44.350Z,95954.16
2023-03-13T07:14:16.944Z,95951.88
2023-03-13T07:16:45.604Z,95939.56
2023-03-13T07:19:15.432Z,95955.81
2023-03-13T07:21:44.120Z,95959.69
2023-03-13T07:24:12.087Z,95947.41
2023-03-13T07:26:42.651Z,95956.66
2023-03-13T07:29:16.348Z,95953.97
2023-03-13T07:31:44.296Z,95954.13
2023-03-13T07:34:12.134Z,95950.44
2023-03-13T07:36:41.742Z,95956.41
2023-03-13T07:39:09.720Z,95952.97
2023-03-13T07:41:38.949Z,95949.59
2023-03-13T07:44:07.614Z,95955.03
2023-03-13T07:46:35.622Z,95957.22
2023-03-13T07:49:03.555Z,95965.63
2023-03-13T07:51:42.909Z,95958.91
2023-03-13T07:54:13.324Z,95964.31
2023-03-13T07:56:41.481Z,95971.41
2023-03-13T07:59:09.790Z,95959.03
2023-03-13T08:01:37.899Z,95962.09
2023-03-13T08:04:06.253Z,95957.22
2023-03-13T08:06:36.854Z,95963.56
2023-03-13T08:09:05.034Z,95957.19
2023-03-13T08:11:34.965Z,95952.47
2023-03-13T08:14:02.998Z,95937.47
2023-03-13T08:16:34.285Z,95957.97
2023-03-13T08:19:04.641Z,95955.31
2023-03-13T08:21:34.420Z,95957.47
2023-03-13T08:24:06.024Z,95954.41
2023-03-13T08:26:36.793Z,95953.03
2023-03-13T08:29:07.775Z,95942.84
2023-03-13T08:31:37.555Z,95930.00
2023-03-13T08:34:05.746Z,95938.63
2023-03-13T08:36:35.037Z,95933.16
2023-03-13T08:39:05.608Z,95940.06
2023-03-13T08:41:36.843Z,95923.59
2023-03-13T08:44:05.964Z,95927.31
2023-03-13T08:46:35.682Z,95916.47
2023-03-13T08:49:05.009Z,95921.22
2023-03-13T08:51:32.936Z,95919.38
2023-03-13T08:54:02.112Z,95916.13
2023-03-13T08:56:31.660Z,95911.81
2023-03-13T08:59:02.656Z,95914.09
2023-03-13T09:01:32.444Z,95899.53
2023-03-13T09:04:03.595Z,95905.97
2023-03-13T09:06:32.286Z,95898.75
2023-03-13T09:09:00.142Z,95899.56
2023-03-13T09:11:28.525Z,95896.50
2023-03-13T09:13:59.249Z,95903.66
2023-03-13T09:16:30.259Z,95889.41
2023-03-13T09:18:59.655Z,95875.69
2023-03-13T09:21:29.685Z,95877.13
2023-03-13T09:23:57.589Z,95861.53
2023-03-13T09:26:26.120Z,95864.88
2023-03-13T09:28:54.604Z,95852.06
2023-03-13T09:31:24.835Z,95846.19
2023-03-13T09:33:54.917Z,95843.75
2023-03-13T09:36:24.407Z,95838.88
2023-03-13T09:38:52.783Z,95843.84
2023-03-13T09:41:35.718Z,95840.53
2023-03-13T09:44:08.548Z,95838.28
2023-03-13T09:46:41.092Z,95826.84
2023-03-13T09:49:18.487Z,95829.63
2023-03-13T09:51:51.897Z,95815.75
2023-03-13T09:54:26.113Z,95814.38
2023-03-13T09:56:58.316Z,95807.84
2023-03-13T09:59:35.080Z,95796.72
2023-03-13T10:02:08.514Z,95795.97
2023-03-13T10:04:44.106Z,95793.97
2023-03-13T10:07:12.754Z,95783.22
2023-03-13T10:09:41.743Z,95781.63
2023-03-13T10:12:18.701Z,95777.06
2023-03-13T10:14:55.666Z,95779.19
2023-03-13T10:17:33.342Z,95759.59
2023-03-13T10:20:15.856Z,95755.34
2023-03-13T10:22:45.519Z,95761.25
2023-03-13T10:25:25.750Z,95756.97
2023-03-13T10:27:53.771Z,95745.06
2023-03-13T10:30:25.701Z,95750.06
2023-03-13T10:32:58.955Z,95729.09
2023-03-13T10:35:34.019Z,95733.44
2023-03-13T10:38:05.566Z,95728.22
2023-03-13T10:40:33.816Z,95738.22
2023-03-13T10:43:04.627Z,95731.13
2023-03-13T10:45:36.315Z,95730.69
2023-03-13T10:48:12.765Z,95720.09
2023-03-13T10:50:48.475Z,95719.31
2023-03-13T10:53:26.494Z,95718.03
2023-03-13T10:55:55.965Z,95701.19
2023-03-13T10:58:31.426Z,95701.84
2023-03-13T11:01:15.517Z,95703.72
2023-03-13T11:03:44.334Z,95692.84
2023-03-13T11:06:26.472Z,95678.03
2023-03-13T11:09:01.256Z,95666.44
2023-03-13T11:11:31.036Z,95673.41
2023-03-13T11:14:10.251Z,95669.63
2023-03-13T11:16:47.329Z,95660.19
2023-03-13T11:19:33.990Z,95656.94
2023-03-13T11:22:29.239Z,95651.81
2023-03-13T11:25:17.365Z,95632.75
2023-03-13T11:27:50.802Z,95635.44
2023-03-13T11:30:32.899Z,95634.19
2023-03-13T11:33:04.296Z,95631.91
2023-03-13T11:35:41.068Z,95622.28
2023-03-13T11:38:21.234Z,95616.19
2023-03-13T11:40:58.971Z,95613.97
2023-03-13T11:43:46.917Z,95613.88
2023-03-13T11:46:29.978Z,95609.03
2023-03-13T11:49:30.027Z,95599.28
2023-03-13T11:52:08.076Z,95594.28
2023-03-13T11:55:18.175Z,95584.38
2023-03-13T11:57:55.394Z,95578.41
2023-03-13T12:00:32.448Z,95583.72
2023-03-13T12:03:07.682Z,95579.94
2023-03-13T12:05:42.820Z,95562.28
2023-03-13T12:08:16.859Z,95565.06
2023-03-13T12:10:49.909Z,95565.53
2023-03-13T12:13:23.392Z,95550.06
2023-03-13T12:15:55.922Z,95545.81
2023-03-13T12:18:30.484Z,95536.22
2023-03-13T12:21:03.063Z,95534.41
2023-03-13T12:23:41.876Z,95532.13
2023-03-13T12:26:14.489Z,95519.97
2023-03-13T12:28:48.063Z,95513.22
2023-03-13T12:31:24.217Z,95496.69
2023-03-13T12:33:57.204Z,95500.72
2023-03-13T12:36:29.845Z,95503.31
2023-03-13T12:39:03.681Z,95497.09
2023-03-13T12:41:38.615Z,95479.91
2023-03-13T12:44:12.816Z,95472.41
2023-03-13T12:46:46.983Z,95461.09
2023-03-13T12:49:44.359Z,95456.09
2023-03-13T12:52:56.497Z,95454.47
2023-03-13T12:55:51.439Z,95435.28
2023-03-13T12:58:38.820Z,95428.22
2023-03-13T13:01:12.876Z,95415.41
2023-03-13T13:03:51.332Z,95400.25
2023-03-13T13:06:20.024Z,95403.91
2023-03-13T13:08:50.629Z,95388.28
2023-03-13T13:11:47.237Z,95379.53
2023-03-13T13:14:54.524Z,95363.03
2023-03-13T13:17:33.003Z,95357.44
2023-03-13T13:20:28.330Z,95352.44
2023-03-13T13:22:56.136Z,95352.00
2023-03-13T13:25:30.853Z,95344.25
2023-03-13T13:28:23.017Z,95345.31
2023-03-13T13:30:51.112Z,95344.78
2023-03-13T13:33:40.929Z,95336.69
2023-03-13T13:36:28.701Z,95327.44
2023-03-13T13:38:56.809Z,95328.38
2023-03-13T13:41:34.965Z,95326.13
2023-03-13T13:44:25.521Z,95314.34
2023-03-13T13:46:54.693Z,95312.00
2023-03-13T13:49:27.331Z,95302.69
2023-03-13T13:52:40.802Z,95304.25
2023-03-13T13:55:41.909Z,95292.28
2023-03-13T13:58:15.015Z,95284.09
2023-03-13T14:00:45.744Z,95282.88
2023-03-13T14:03:20.952Z,95281.47
2023-03-13T14:05:53.062Z,95269.47
2023-03-13T14:08:25.674Z,95263.59
2023-03-13T14:11:06.008Z,95252.47
2023-03-13T14:13:33.762Z,95251.31
2023-03-13T14:16:24.539Z,95242.06
2023-03-13T14:18:53.181Z,95243.59
2023-03-13T14:21:25.116Z,95231.91
2023-03-13T14:23:53.568Z,95236.13
2023-03-13T14:26:23.125Z,95219.66
2023-03-13T14:28:52.582Z,95221.88
2023-03-13T14:31:29.110Z,95215.47
2023-03-13T14:33:57.852Z,95209.50
2023-03-13T14:36:28.062Z,95216.06
2023-03-13T14:38:58.049Z,95206.22
2023-03-13T14:41:29.910Z,95206.41
2023-03-13T14:44:03.646Z,95203.06
2023-03-13T14:46:33.481Z,95191.50
2023-03-13T14:49:09.187Z,95183.63
2023-03-13T14:51:41.324Z,95181.22
2023-03-13T14:54:26.141Z,95173.44
2023-03-13T14:57:04.692Z,95170.09
2023-03-13T14:59:32.624Z,95167.25
2023-03-13T15:02:01.593Z,95159.00
2023-03-13T15:04:59.762Z,95157.66
2023-03-13T15:07:37.478Z,95138.75
2023-03-13T15:10:20.332Z,95139.03
2023-03-13T15:12:48.450Z,95136.31
2023-03-13T15:15:16.506Z,95121.78
2023-03-13T15:17:44.971Z,95116.69
2023-03-13T15:20:14.235Z,95123.16
2023-03-13T15:22:46.155Z,95105.84
2023-03-13T15:25:16.608Z,95106.31
2023-03-13T15:27:44.361Z,95100.19
2023-03-13T15:30:16.641Z,95089.75
2023-03-13T15:32:46.732Z,95081.78
2023-03-13T15:35:25.486Z,95070.84
2023-03-13T15:37:54.799Z,95074.28
2023-03-13T15:40:24.291Z,95063.44
2023-03-13T15:42:52.898Z,95057.94
2023-03-13T15:45:21.257Z,95054.06
2023-03-13T15:47:49.320Z,95039.53
2023-03-13T15:50:20.389Z,95027.06
2023-03-13T15:52:48.176Z,95013.84
2023-03-13T15:55:17.402Z,95019.97
2023-03-13T15:57:47.293Z,94990.97
2023-03-13T16:00:19.837Z,95007.25
2023-03-13T16:02:47.881Z,94994.28
2023-03-13T16:05:15.667Z,94989.94
2023-03-13T16:07:43.594Z,94982.31
2023-03-13T16:10:19.099Z,94975.50
2023-03-13T16:12:47.065Z,94974.78
2023-03-13T16:15:14.864Z,94968.94
2023-03-13T16:17:42.621Z,94965.81
2023-03-13T16:20:16.975Z,94951.16
2023-03-13T16:22:45.007Z,94952.53
2023-03-13T16:25:13.534Z,94944.09
2023-03-13T16:27:43.189Z,94928.84
2023-03-13T16:30:19.003Z,94925.88
2023-03-13T16:32:47.231Z,94922.81
2023-03-13T16:35:15.266Z,94924.06
2023-03-13T16:37:43.090Z,94915.56
2023-03-13T16:40:16.971Z,94903.72
2023-03-13T16:42:46.199Z,94892.03
2023-03-13T16:45:14.584Z,94892.66
2023-03-13T16:47:43.542Z,94883.69
2023-03-13T16:50:22.109Z,94878.50
2023-03-13T16:52:50.170Z,94880.47
2023-03-13T16:55:18.447Z,94878.22
2023-03-13T16:57:47.583Z,94871.22
2023-03-13T17:00:18.270Z,94864.28
2023-03-13T17:02:46.180Z,94862.88
2023-03-13T17:05:15.923Z,94848.84
2023-03-13T17:07:45.155Z,94845.34
2023-03-13T17:10:20.217Z,94833.38
2023-03-13T17:12:50.336Z,94831.38
2023-03-13T17:15:19.922Z,94823.59
2023-03-13T17:17:51.721Z,94818.81
2023-03-13T17:20:20.448Z,94811.63
2023-03-13T17:22:48.321Z,94806.81
2023-03-13T17:25:16.530Z,94807.22
2023-03-13T17:27:47.345Z,94808.97
2023-03-13T17:30:21.431Z,94802.00
2023-03-13T17:32:50.204Z,94780.88
2023-03-13T17:35:19.488Z,94794.53
2023-03-13T17:37:47.811Z,94779.50
2023-03-13T17:40:21.084Z,94780.50
2023-03-13T17:42:49.281Z,94781.94
2023-03-13T17:45:19.060Z,94775.44
2023-03-13T17:47:47.229Z,94789.66
2023-03-13T17:50:17.428Z,94794.16
2023-03-13T17:52:45.583Z,94782.72
2023-03-13T17:55:13.720Z,94779.34
2023-03-13T17:57:42.287Z,94778.38
2023-03-13T18:00:22.241Z,94769.00
2023-03-13T18:02:50.558Z,94754.44
2023-03-13T18:05:18.768Z,94753.28
2023-03-13T18:07:46.808Z,94741.88
2023-03-13T18:10:20.140Z,94731.59
2023-03-13T18:12:48.282Z,94740.16
2023-03-13T18:15:16.233Z,94747.66
2023-03-13T18:17:45.961Z,94739.81
2023-03-13T18:20:17.038Z,94730.47
2023-03-13T18:22:45.483Z,94729.72
2023-03-13T18:25:13.516Z,94726.88
2023-03-13T18:27:41.733Z,94715.34
2023-03-13T18:30:15.805Z,94720.88
2023-03-13T18:32:47.199Z,94721.03
2023-03-13T18:35:15.630Z,94718.06
2023-03-13T18:37:45.804Z,94712.13
2023-03-13T18:40:22.140Z,94712.09
2023-03-13T18:42:50.662Z,94710.66
2023-03-13T18:45:20.178Z,94719.31
2023-03-13T18:47:49.448Z,94693.34
2023-03-13T18:50:25.124Z,94695.75
2023-03-13T18:52:53.463Z,94705.78
2023-03-13T18:55:21.233Z,94713.25
2023-03-13T18:57:49.203Z,94714.63
2023-03-13T19:00:19.015Z,94718.53
2023-03-13T19:02:47.007Z,94720.84
2023-03-13T19:05:16.998Z,94733.63
2023-03-13T19:07:45.395Z,94743.41
2023-03-13T19:10:21.270Z,94733.19
2023-03-13T19:12:49.097Z,94749.13
2023-03-13T19:15:17.521Z,94735.66
2023-03-13T19:17:45.943Z,94744.47
2023-03-13T19:20:17.805Z,94761.94
2023-03-13T19:22:45.859Z,94753.13
2023-03-13T19:25:16.816Z,94751.38
2023-03-13T19:27:45.715Z,94734.66
2023-03-13T19:30:18.239Z,94744.75
2023-03-13T19:32:45.990Z,94747.81
2023-03-13T19:35:16.638Z,94760.25
2023-03-13T19:37:46.490Z,94740.50
2023-03-13T19:40:19.235Z,94759.38
2023-03-13T19:42:47.113Z,94760.47
2023-03-13T19:45:17.335Z,94780.66
2023-03-13T19:47:45.599Z,94802.44
2023-03-13T19:50:18.945Z,94811.69
2023-03-13T19:52:48.150Z,94810.00
2023-03-13T19:55:16.500Z,94813.16
2023-03-13T19:57:44.406Z,94800.47
2023-03-13T20:00:19.620Z,94809.50
2023-03-13T20:02:47.454Z,94832.38
2023-03-13T20:05:15.508Z,94850.06
2023-03-13T20:07:43.466Z,94873.91
2023-03-13T20:10:12.888Z,94908.31
2023-03-13T20:12:40.638Z,94911.59
2023-03-13T20:15:09.918Z,94867.13
2023-03-13T20:17:37.634Z,94902.03
2023-03-13T20:20:08.391Z,94902.28
2023-03-13T20:22:36.368Z,94983.88
2023-03-13T20:25:04.549Z,94992.13
2023-03-13T20:27:33.729Z,94995.38
2023-03-13T20:30:01.748Z,95011.41
2023-03-13T20:32:29.546Z,95039.81
2023-03-13T20:34:57.305Z,95064.09
2023-03-13T20:37:25.512Z,95059.09
2023-03-13T20:39:53.277Z,95052.28
2023-03-13T20:42:22.934Z,95050.25
2023-03-13T20:44:52.101Z,95058.59
2023-03-13T20:47:19.847Z,95069.97
2023-03-13T20:49:47.672Z,95042.50
2023-03-13T20:52:15.636Z,95055.00
2023-03-13T20:54:43.617Z,95060.53
2023-03-13T20:57:11.302Z,95046.53
2023-03-13T20:59:39.203Z,95011.28
2023-03-13T21:02:09.819Z,94989.19
2023-03-13T21:04:37.785Z,95001.31
2023-03-13T21:07:05.730Z,94986.47
2023-03-13T21:09:34.621Z,94967.28
2023-03-13T21:12:02.613Z,94985.69
2023-03-13T21:14:33.404Z,94985.44
2023-03-13T21:17:02.461Z,94996.00
2023-03-13T21:19:32.127Z,94998.63
2023-03-13T21:21:59.912Z,94991.06
2023-03-13T21:24:27.960Z,94988.94
2023-03-13T21:26:57.216Z,94993.81
2023-03-13T21:29:26.153Z,94986.69
2023-03-13T21:31:54.348Z,94986.25
2023-03-13T21:34:22.116Z,95004.88
2023-03-13T21:36:51.274Z,94994.53
2023-03-13T21:39:19.652Z,94997.59
2023-03-13T21:41:47.391Z,95021.25
2023-03-13T21:44:16.216Z,95031.38
2023-03-13T21:46:43.990Z,95033.50
2023-03-13T21:49:12.460Z,95051.75
2023-03-13T21:51:40.223Z,95040.84
2023-03-13T21:54:09.412Z,95041.03
2023-03-13T21:56:37.194Z,95062.22
2023-03-13T21:59:05.039Z,95062.13
2023-03-13T22:01:32.825Z,95107.28
2023-03-13T22:04:00.611Z,95131.38
2023-03-13T22:06:28.451Z,95157.97
2023-03-13T22:08:56.243Z,95152.91
2023-03-13T22:11:25.432Z,95164.19
2023-03-13T22:13:53.261Z,95182.69
2023-03-13T22:16:21.388Z,95172.47
2023-03-13T22:18:49.237Z,95192.84
2023-03-13T22:21:17.526Z,95195.22
2023-03-13T22:23:45.645Z,95194.69
2023-03-13T22:26:14.831Z,95209.94
2023-03-13T22:28:44.019Z,95237.53
2023-03-13T22:31:12.787Z,95239.09
2023-03-13T22:33:40.600Z,95258.09
2023-03-13T22:36:10.182Z,95279.53
2023-03-13T22:38:39.931Z,95263.94
2023-03-13T22:41:09.655Z,95288.00
2023-03-13T22:43:37.855Z,95312.03
2023-03-13T22:46:07.447Z,95315.19
2023-03-13T22:48:35.231Z,95321.59
2023-03-13T22:51:06.619Z,95316.75
2023-03-13T22:53:36.980Z,95325.00
2023-03-13T22:56:05.372Z,95334.06
2023-03-13T22:58:34.452Z,95322.47
2023-03-13T23:01:02.271Z,95327.03
2023-03-13T23:03:31.404Z,95315.00
2023-03-13T23:05:59.202Z,95318.44
2023-03-13T23:08:27.326Z,95296.22
2023-03-13T23:10:55.033Z,95315.88
2023-03-13T23:13:22.781Z,95320.53
2023-03-13T23:15:57.634Z,95329.13
2023-03-13T23:18:26.231Z,95322.28
2023-03-13T23:20:55.676Z,95321.16
2023-03-13T23:23:23.624Z,95295.91
2023-03-13T23:25:51.748Z,95316.47
2023-03-13T23:28:19.540Z,95325.38
2023-03-13T23:30:47.288Z,95317.69
2023-03-13T23:33:15.089Z,95314.63
2023-03-13T23:35:43.932Z,95314.34
2023-03-13T23:38:13.532Z,95304.47
2023-03-13T23:40:41.320Z,95299.94
2023-03-13T23:43:09.208Z,95299.72
2023-03-13T23:45:37.064Z,95304.41
2023-03-13T23:48:05.036Z,95293.75
2023-03-13T23:50:33.011Z,95307.16
2023-03-13T23:53:00.752Z,95305.06
2023-03-13T23:55:30.251Z,95304.59
2023-03-13T23:57:58.030Z,95302.34
